createdAt,value
2023-07-18T00:00:00.747Z,968
2023-07-18T00:01:00.833Z,968.2
2023-07-18T00:02:00.782Z,968
2023-07-18T00:03:00.771Z,968
2023-07-18T00:04:00.811Z,968
2023-07-18T00:05:00.757Z,968
2023-07-18T00:06:00.771Z,968
2023-07-18T00:07:00.763Z,968
2023-07-18T00:08:00.750Z,968.2
2023-07-18T00:09:00.752Z,968.2
2023-07-18T00:10:00.755Z,968.4
2023-07-18T00:11:00.749Z,968.2
2023-07-18T00:12:00.766Z,968.4
2023-07-18T00:13:00.772Z,968
2023-07-18T00:14:00.765Z,968
2023-07-18T00:15:00.763Z,968.2
2023-07-18T00:16:00.794Z,968
2023-07-18T00:17:00.767Z,968
2023-07-18T00:18:00.785Z,968
2023-07-18T00:19:00.797Z,968
2023-07-18T00:20:00.799Z,968
2023-07-18T00:21:00.766Z,967.7
2023-07-18T00:22:00.759Z,967.7
2023-07-18T00:23:00.915Z,967.7
2023-07-18T00:24:00.923Z,967.7
2023-07-18T00:25:00.796Z,967.5
2023-07-18T00:26:00.816Z,967.5
2023-07-18T00:27:00.769Z,967.5
2023-07-18T00:28:00.778Z,967.5
2023-07-18T00:29:00.773Z,967.5
2023-07-18T00:30:00.773Z,967.5
2023-07-18T00:31:00.769Z,967.5
2023-07-18T00:32:00.852Z,967.5
2023-07-18T00:33:00.892Z,967.5
2023-07-18T00:34:00.788Z,967.5
2023-07-18T00:35:00.776Z,967.5
2023-07-18T00:36:00.797Z,967.5
2023-07-18T00:37:00.777Z,967.5
2023-07-18T00:38:00.783Z,967.3
2023-07-18T00:39:00.801Z,967.1
2023-07-18T00:40:00.782Z,967.1
2023-07-18T00:41:00.788Z,966.9
2023-07-18T00:42:00.792Z,967.1
2023-07-18T00:43:00.811Z,967.1
2023-07-18T00:44:00.785Z,967.1
2023-07-18T00:45:00.823Z,966.7
2023-07-18T00:46:00.841Z,966.4
2023-07-18T00:47:00.791Z,966.2
2023-07-18T00:48:00.846Z,966.2
2023-07-18T00:49:00.789Z,966
2023-07-18T00:50:00.818Z,966
2023-07-18T00:51:00.789Z,966
2023-07-18T00:52:00.820Z,966
2023-07-18T00:53:00.791Z,965.8
2023-07-18T00:54:00.810Z,965.8
2023-07-18T00:55:00.807Z,965.8
2023-07-18T00:56:00.800Z,965.6
2023-07-18T00:57:00.797Z,965.6
2023-07-18T00:58:00.801Z,965.6
2023-07-18T00:59:00.819Z,965.8
2023-07-18T01:00:00.820Z,965.8
2023-07-18T01:01:00.832Z,965.8
2023-07-18T01:02:00.809Z,966
2023-07-18T01:03:00.949Z,965.8
2023-07-18T01:04:00.817Z,965.8
2023-07-18T01:05:00.814Z,965.8
2023-07-18T01:06:00.824Z,965.8
2023-07-18T01:07:00.881Z,965.8
2023-07-18T01:08:00.812Z,965.8
2023-07-18T01:09:00.805Z,966.2
2023-07-18T01:10:00.836Z,966.2
2023-07-18T01:11:00.828Z,966.2
2023-07-18T01:12:00.854Z,966
2023-07-18T01:13:00.849Z,966.2
2023-07-18T01:14:00.825Z,966.2
2023-07-18T01:15:00.819Z,966.2
2023-07-18T01:16:00.977Z,966.2
2023-07-18T01:17:00.821Z,965.8
2023-07-18T01:18:00.881Z,966.2
2023-07-18T01:19:00.825Z,966.2
2023-07-18T01:20:00.851Z,966.2
2023-07-18T01:21:00.818Z,966.2
2023-07-18T01:22:00.821Z,966.2
2023-07-18T01:23:00.964Z,966.2
2023-07-18T01:24:00.837Z,966.2
2023-07-18T01:25:00.833Z,966.2
2023-07-18T01:26:00.864Z,966.2
2023-07-18T01:27:00.832Z,966.4
2023-07-18T01:28:00.906Z,966.2
2023-07-18T01:29:00.848Z,966.2
2023-07-18T01:30:00.848Z,966.2
2023-07-18T01:31:00.858Z,966.4
2023-07-18T01:32:00.843Z,966.2
2023-07-18T01:33:00.909Z,966.2
2023-07-18T01:34:00.869Z,966.2
2023-07-18T01:35:00.841Z,966.2
2023-07-18T01:36:00.852Z,966.2
2023-07-18T01:37:00.843Z,966.2
2023-07-18T01:38:00.850Z,966.2
2023-07-18T01:39:00.860Z,966.2
2023-07-18T01:40:00.866Z,966.2
2023-07-18T01:41:00.849Z,966.2
2023-07-18T01:42:00.851Z,966.2
2023-07-18T01:43:00.845Z,966.4
2023-07-18T01:44:00.856Z,966.7
2023-07-18T01:45:00.927Z,966.4
2023-07-18T01:46:00.881Z,966.2
2023-07-18T01:47:00.978Z,966.7
2023-07-18T01:48:00.945Z,966.7
2023-07-18T01:49:00.851Z,966.7
2023-07-18T01:50:00.888Z,966.9
2023-07-18T01:51:00.869Z,966.9
2023-07-18T01:52:00.855Z,967.1
2023-07-18T01:53:00.860Z,967.5
2023-07-18T01:54:00.861Z,967.5
2023-07-18T01:55:00.872Z,967.3
2023-07-18T01:56:00.864Z,967.3
2023-07-18T01:57:00.866Z,967.3
2023-07-18T01:58:00.856Z,967.5
2023-07-18T01:59:00.856Z,967.5
2023-07-18T02:00:02.062Z,967.5
2023-07-18T02:01:02.053Z,967.7
2023-07-18T02:02:00.604Z,968
2023-07-18T02:03:00.626Z,968
2023-07-18T02:04:00.558Z,968.2
2023-07-18T02:05:00.564Z,968
2023-07-18T02:06:00.559Z,968.2
2023-07-18T02:07:00.565Z,968.4
2023-07-18T02:08:00.570Z,968.4
2023-07-18T02:09:00.595Z,968.4
2023-07-18T02:10:00.613Z,968.4
2023-07-18T02:11:00.571Z,968.4
2023-07-18T02:12:00.571Z,968.4
2023-07-18T02:13:00.566Z,968.4
2023-07-18T02:14:00.567Z,968.8
2023-07-18T02:15:00.580Z,968.8
2023-07-18T02:16:00.570Z,968.8
2023-07-18T02:17:00.595Z,968.8
2023-07-18T02:18:00.674Z,968.8
2023-07-18T02:19:00.578Z,968.8
2023-07-18T02:20:00.614Z,968.8
2023-07-18T02:21:00.598Z,968.8
2023-07-18T02:22:00.613Z,968.8
2023-07-18T02:23:00.636Z,968.8
2023-07-18T02:24:00.577Z,968.8
2023-07-18T02:25:00.583Z,968.8
2023-07-18T02:26:00.580Z,968.8
2023-07-18T02:27:00.587Z,968.8
2023-07-18T02:28:00.588Z,968.8
2023-07-18T02:29:00.587Z,968.8
2023-07-18T02:30:00.590Z,968.8
2023-07-18T02:31:00.652Z,968.8
2023-07-18T02:32:00.586Z,968.8
2023-07-18T02:33:00.646Z,968.8
2023-07-18T02:34:00.591Z,968.8
2023-07-18T02:35:00.624Z,968.8
2023-07-18T02:36:00.602Z,968.8
2023-07-18T02:37:00.610Z,968.8
2023-07-18T02:38:00.610Z,968.6
2023-07-18T02:39:00.610Z,968.6
2023-07-18T02:40:00.603Z,968.4
2023-07-18T02:41:00.602Z,968.4
2023-07-18T02:42:00.601Z,968.4
2023-07-18T02:43:00.601Z,968.4
2023-07-18T02:44:00.604Z,968.4
2023-07-18T02:45:00.639Z,968.2
2023-07-18T02:46:00.605Z,968.2
2023-07-18T02:47:00.732Z,968.2
2023-07-18T02:48:00.638Z,968.2
2023-07-18T02:49:00.615Z,968.4
2023-07-18T02:50:00.617Z,968.2
2023-07-18T02:51:00.608Z,968.4
2023-07-18T02:52:00.602Z,968.4
2023-07-18T02:53:00.625Z,968.4
2023-07-18T02:54:00.626Z,968.2
2023-07-18T02:55:00.657Z,968
2023-07-18T02:56:00.615Z,968.2
2023-07-18T02:57:00.651Z,968
2023-07-18T02:58:00.614Z,967.7
2023-07-18T02:59:00.612Z,967.7
2023-07-18T03:00:00.786Z,968
2023-07-18T03:01:00.621Z,968
2023-07-18T03:02:00.718Z,968
2023-07-18T03:03:00.673Z,968.2
2023-07-18T03:04:00.752Z,968
2023-07-18T03:05:00.677Z,968
2023-07-18T03:06:00.621Z,968
2023-07-18T03:07:00.619Z,968
2023-07-18T03:08:00.630Z,968
2023-07-18T03:09:00.621Z,968
2023-07-18T03:10:00.632Z,968
2023-07-18T03:11:00.621Z,968
2023-07-18T03:12:00.648Z,968
2023-07-18T03:13:00.627Z,968
2023-07-18T03:14:00.627Z,968
2023-07-18T03:15:00.632Z,967.7
2023-07-18T03:16:00.637Z,968
2023-07-18T03:17:00.748Z,968
2023-07-18T03:18:00.676Z,968
2023-07-18T03:19:00.629Z,968.2
2023-07-18T03:20:00.645Z,968
2023-07-18T03:21:00.637Z,968
2023-07-18T03:22:00.679Z,968
2023-07-18T03:23:00.672Z,968.2
2023-07-18T03:24:00.639Z,968.2
2023-07-18T03:25:00.657Z,968
2023-07-18T03:26:00.671Z,968
2023-07-18T03:27:00.645Z,968
2023-07-18T03:28:00.642Z,968
2023-07-18T03:29:00.644Z,968
2023-07-18T03:30:00.717Z,968
2023-07-18T03:31:00.646Z,968
2023-07-18T03:32:00.895Z,968
2023-07-18T03:33:00.720Z,967.7
2023-07-18T03:34:00.654Z,968
2023-07-18T03:35:00.691Z,968
2023-07-18T03:36:00.699Z,967.7
2023-07-18T03:37:00.652Z,967.5
2023-07-18T03:38:00.656Z,967.5
2023-07-18T03:39:00.661Z,967.5
2023-07-18T03:40:00.655Z,967.5
2023-07-18T03:41:00.655Z,967.5
2023-07-18T03:42:00.668Z,967.5
2023-07-18T03:43:00.659Z,967.5
2023-07-18T03:44:00.687Z,967.3
2023-07-18T03:45:00.664Z,967.5
2023-07-18T03:46:00.762Z,967.5
2023-07-18T03:47:14.944Z,967.5
2023-07-18T03:48:00.717Z,967.7
2023-07-18T03:49:00.712Z,967.5
2023-07-18T03:50:00.679Z,967.5
2023-07-18T03:51:00.674Z,968
2023-07-18T03:52:00.666Z,967.5
2023-07-18T03:53:00.669Z,967.5
2023-07-18T03:54:00.670Z,967.5
2023-07-18T03:55:00.710Z,967.5
2023-07-18T03:56:00.684Z,967.5
2023-07-18T03:57:00.673Z,967.5
2023-07-18T03:58:00.679Z,967.5
2023-07-18T03:59:00.679Z,967.1
2023-07-18T04:00:00.677Z,967.1
2023-07-18T04:01:00.678Z,967.1
2023-07-18T04:02:00.714Z,967.1
2023-07-18T04:03:01.003Z,967.1
2023-07-18T04:04:00.740Z,966.9
2023-07-18T04:05:00.712Z,967.1
2023-07-18T04:06:00.680Z,967.3
2023-07-18T04:07:00.693Z,967.1
2023-07-18T04:08:00.705Z,967.1
2023-07-18T04:09:00.700Z,967.1
2023-07-18T04:10:00.689Z,967.1
2023-07-18T04:11:00.711Z,967.1
2023-07-18T04:12:00.689Z,966.7
2023-07-18T04:13:00.693Z,966.7
2023-07-18T04:14:00.695Z,966.7
2023-07-18T04:15:00.754Z,966.4
2023-07-18T04:16:00.737Z,966.9
2023-07-18T04:17:00.701Z,966.7
2023-07-18T04:18:00.770Z,966.7
2023-07-18T04:19:00.700Z,966.7
2023-07-18T04:20:00.743Z,966.7
2023-07-18T04:21:00.710Z,966.4
2023-07-18T04:22:00.736Z,966.2
2023-07-18T04:23:00.723Z,966.2
2023-07-18T04:24:00.703Z,966.2
2023-07-18T04:25:00.745Z,966.4
2023-07-18T04:26:00.744Z,966.7
2023-07-18T04:27:00.709Z,966.4
2023-07-18T04:28:00.705Z,966.7
2023-07-18T04:29:00.703Z,966.4
2023-07-18T04:30:00.715Z,966.2
2023-07-18T04:31:00.740Z,966.2
2023-07-18T04:32:00.763Z,966.7
2023-07-18T04:33:00.745Z,966.7
2023-07-18T04:34:00.731Z,966.4
2023-07-18T04:35:00.750Z,966.7
2023-07-18T04:36:00.746Z,966.2
2023-07-18T04:37:00.715Z,966.7
2023-07-18T04:38:00.718Z,966.2
2023-07-18T04:39:00.717Z,966.4
2023-07-18T04:40:00.722Z,966.2
2023-07-18T04:41:00.718Z,966.2
2023-07-18T04:42:00.721Z,966.2
2023-07-18T04:43:00.722Z,966.2
2023-07-18T04:44:00.728Z,966.2
2023-07-18T04:45:00.732Z,966.7
2023-07-18T04:46:00.818Z,966.7
2023-07-18T04:47:00.787Z,966.4
2023-07-18T04:48:00.741Z,966.2
2023-07-18T04:49:00.729Z,965.8
2023-07-18T04:50:00.771Z,966
2023-07-18T04:51:00.819Z,965.8
2023-07-18T04:52:00.743Z,965.8
2023-07-18T04:53:00.763Z,965.6
2023-07-18T04:54:00.737Z,965.6
2023-07-18T04:55:00.758Z,965.4
2023-07-18T04:56:00.767Z,965.4
2023-07-18T04:57:00.753Z,965.6
2023-07-18T04:58:00.752Z,965.4
2023-07-18T04:59:00.842Z,965.1
2023-07-18T05:00:00.803Z,965.1
2023-07-18T05:01:01.077Z,964.9
2023-07-18T05:02:00.852Z,964.9
2023-07-18T05:03:00.779Z,964.5
2023-07-18T05:04:00.797Z,964.5
2023-07-18T05:05:00.754Z,964.5
2023-07-18T05:06:00.760Z,964.5
2023-07-18T05:07:00.755Z,964
2023-07-18T05:08:00.760Z,964
2023-07-18T05:09:00.785Z,964
2023-07-18T05:10:00.771Z,963.8
2023-07-18T05:11:00.750Z,963.6
2023-07-18T05:12:00.811Z,963.8
2023-07-18T05:13:00.752Z,964
2023-07-18T05:14:00.755Z,963.6
2023-07-18T05:15:00.752Z,963.6
2023-07-18T05:16:00.785Z,963.4
2023-07-18T05:17:00.757Z,963.6
2023-07-18T05:18:00.816Z,964
2023-07-18T05:19:00.761Z,963
2023-07-18T05:20:00.765Z,963.2
2023-07-18T05:21:00.765Z,963.2
2023-07-18T05:22:00.833Z,962.7
2023-07-18T05:23:00.781Z,963.2
2023-07-18T05:24:00.795Z,963
2023-07-18T05:25:00.810Z,963.2
2023-07-18T05:26:00.816Z,963
2023-07-18T05:27:00.778Z,963.2
2023-07-18T05:28:00.763Z,963
2023-07-18T05:29:00.764Z,962.3
2023-07-18T05:30:00.773Z,962.5
2023-07-18T05:31:00.818Z,962.5
2023-07-18T05:32:00.858Z,962.1
2023-07-18T05:33:00.807Z,962.3
2023-07-18T05:34:00.783Z,962.1
2023-07-18T05:35:00.804Z,961.9
2023-07-18T05:36:00.795Z,961.9
2023-07-18T05:37:01.569Z,961.9
2023-07-18T05:38:00.776Z,961.9
2023-07-18T05:39:00.777Z,961.7
2023-07-18T05:40:00.799Z,961.9
2023-07-18T05:41:00.788Z,961.7
2023-07-18T05:42:00.781Z,961.4
2023-07-18T05:43:00.800Z,961.4
2023-07-18T05:44:00.782Z,961.4
2023-07-18T05:45:00.847Z,961.4
2023-07-18T05:46:00.821Z,961.2
2023-07-18T05:47:00.786Z,961.4
2023-07-18T05:48:00.830Z,961.2
2023-07-18T05:49:00.795Z,961.4
2023-07-18T05:50:00.820Z,961.2
2023-07-18T05:51:00.792Z,961.2
2023-07-18T05:52:00.797Z,961.2
2023-07-18T05:53:00.788Z,961.4
2023-07-18T05:54:00.807Z,961.7
2023-07-18T05:55:00.923Z,961.2
2023-07-18T05:56:00.810Z,961
2023-07-18T05:57:00.819Z,961
2023-07-18T05:58:00.802Z,961
2023-07-18T05:59:00.794Z,961
2023-07-18T06:00:00.804Z,961
2023-07-18T06:01:00.859Z,960.8
2023-07-18T06:02:00.826Z,960.6
2023-07-18T06:03:00.916Z,960.6
2023-07-18T06:04:00.851Z,960.4
2023-07-18T06:05:00.801Z,960.6
2023-07-18T06:06:00.812Z,960.6
2023-07-18T06:07:00.811Z,960.6
2023-07-18T06:08:00.820Z,959.7
2023-07-18T06:09:00.810Z,959.9
2023-07-18T06:10:00.840Z,960.1
2023-07-18T06:11:00.807Z,959.9
2023-07-18T06:12:00.815Z,959.9
2023-07-18T06:13:00.823Z,960.1
2023-07-18T06:14:00.814Z,959.9
2023-07-18T06:15:00.828Z,959.7
2023-07-18T06:16:00.836Z,959.7
2023-07-18T06:17:00.910Z,959.7
2023-07-18T06:18:00.984Z,959.7
2023-07-18T06:19:00.818Z,959.7
2023-07-18T06:20:00.832Z,959.9
2023-07-18T06:21:00.819Z,959.7
2023-07-18T06:22:00.832Z,959.3
2023-07-18T06:23:00.863Z,959.3
2023-07-18T06:24:12.840Z,959.3
2023-07-18T06:25:00.842Z,959.3
2023-07-18T06:26:00.851Z,958.8
2023-07-18T06:27:00.841Z,959.5
2023-07-18T06:28:00.824Z,959.3
2023-07-18T06:29:00.848Z,959.5
2023-07-18T06:30:00.901Z,958.6
2023-07-18T06:31:00.892Z,958.8
2023-07-18T06:32:00.838Z,958.8
2023-07-18T06:33:00.894Z,958.8
2023-07-18T06:34:00.834Z,958.8
2023-07-18T06:35:09.454Z,958.4
2023-07-18T06:36:00.901Z,958.2
2023-07-18T06:37:00.841Z,958.4
2023-07-18T06:38:00.841Z,958.2
2023-07-18T06:39:00.835Z,958
2023-07-18T06:40:00.891Z,958
2023-07-18T06:41:00.842Z,958.4
2023-07-18T06:42:00.847Z,957.7
2023-07-18T06:43:00.840Z,958.2
2023-07-18T06:44:00.845Z,958
2023-07-18T06:45:00.885Z,958
2023-07-18T06:46:00.855Z,957.1
2023-07-18T06:47:00.917Z,957.5
2023-07-18T06:48:00.934Z,957.5
2023-07-18T06:49:00.861Z,957.7
2023-07-18T06:50:00.909Z,958
2023-07-18T06:51:00.869Z,957.5
2023-07-18T06:52:00.857Z,957.5
2023-07-18T06:53:00.862Z,957.3
2023-07-18T06:54:00.873Z,956.4
2023-07-18T06:55:00.855Z,957.1
2023-07-18T06:56:00.866Z,956.7
2023-07-18T06:57:00.863Z,956.7
2023-07-18T06:58:00.861Z,957.1
2023-07-18T06:59:00.863Z,956
2023-07-18T07:00:00.949Z,956.2
2023-07-18T07:01:00.908Z,956.2
2023-07-18T07:02:00.862Z,955.1
2023-07-18T07:03:01.051Z,956.2
2023-07-18T07:04:00.903Z,956.2
2023-07-18T07:05:00.889Z,956.4
2023-07-18T07:06:00.886Z,955.8
2023-07-18T07:07:01.000Z,955.1
2023-07-18T07:08:00.869Z,955.8
2023-07-18T07:09:00.877Z,956.2
2023-07-18T07:10:00.892Z,956
2023-07-18T07:11:00.876Z,954.9
2023-07-18T07:12:00.880Z,955.8
2023-07-18T07:13:00.872Z,955.8
2023-07-18T07:14:00.875Z,956.2
2023-07-18T07:15:00.883Z,955.8
2023-07-18T07:16:00.882Z,956.7
2023-07-18T07:17:00.932Z,955.8
2023-07-18T07:18:00.947Z,955.8
2023-07-18T07:19:00.885Z,955.4
2023-07-18T07:20:00.894Z,955.8
2023-07-18T07:21:00.908Z,955.8
2023-07-18T07:22:00.886Z,955.4
2023-07-18T07:23:00.937Z,954.5
2023-07-18T07:24:00.902Z,954.9
2023-07-18T07:25:00.907Z,955.4
2023-07-18T07:26:00.914Z,955.6
2023-07-18T07:27:00.884Z,955.8
2023-07-18T07:28:00.906Z,955.8
2023-07-18T07:29:00.888Z,955.8
2023-07-18T07:30:00.902Z,955.6
2023-07-18T07:31:00.932Z,955.4
2023-07-18T07:32:00.899Z,955.8
2023-07-18T07:33:00.964Z,955.6
2023-07-18T07:34:00.902Z,955.8
2023-07-18T07:35:00.933Z,955.8
2023-07-18T07:36:00.901Z,955.8
2023-07-18T07:37:00.905Z,955.8
2023-07-18T07:38:00.904Z,955.8
2023-07-18T07:39:00.908Z,955.4
2023-07-18T07:40:00.941Z,955.8
2023-07-18T07:41:00.906Z,954.7
2023-07-18T07:42:00.921Z,954.7
2023-07-18T07:43:00.900Z,955.1
2023-07-18T07:44:00.925Z,955.4
2023-07-18T07:45:00.951Z,954.9
2023-07-18T07:46:00.928Z,955.4
2023-07-18T07:47:00.984Z,954.9
2023-07-18T07:48:00.973Z,954.9
2023-07-18T07:49:00.952Z,954.9
2023-07-18T07:50:00.930Z,955.4
2023-07-18T07:51:00.912Z,955.4
2023-07-18T07:52:00.911Z,955.8
2023-07-18T07:53:00.912Z,955.1
2023-07-18T07:54:00.923Z,954.7
2023-07-18T07:55:00.918Z,954.5
2023-07-18T07:56:00.925Z,954.9
2023-07-18T07:57:00.963Z,955.6
2023-07-18T07:58:00.930Z,955.6
2023-07-18T07:59:11.131Z,955.6
2023-07-18T08:00:01.012Z,955.4
2023-07-18T08:01:00.911Z,954.9
2023-07-18T08:02:01.015Z,954.9
2023-07-18T08:03:00.918Z,953.6
2023-07-18T08:04:00.883Z,954
2023-07-18T08:05:00.832Z,954.5
2023-07-18T08:06:00.766Z,954
2023-07-18T08:07:00.734Z,953.6
2023-07-18T08:08:00.711Z,953.6
2023-07-18T08:09:00.676Z,954.5
2023-07-18T08:10:00.681Z,954.7
2023-07-18T08:11:00.622Z,954.7
2023-07-18T08:12:00.594Z,954.7
2023-07-18T08:13:00.571Z,954.7
2023-07-18T08:14:00.541Z,954.5
2023-07-18T08:15:00.507Z,954.5
2023-07-18T08:16:00.532Z,954.3
2023-07-18T08:17:00.501Z,953.2
2023-07-18T08:18:00.515Z,953.6
2023-07-18T08:19:00.514Z,953.6
2023-07-18T08:20:00.552Z,953
2023-07-18T08:21:00.509Z,953.2
2023-07-18T08:22:00.508Z,953.2
2023-07-18T08:23:00.557Z,953.2
2023-07-18T08:24:00.515Z,953.4
2023-07-18T08:25:00.553Z,953.2
2023-07-18T08:26:00.542Z,952.7
2023-07-18T08:27:00.516Z,952.7
2023-07-18T08:28:00.514Z,953.2
2023-07-18T08:29:00.609Z,953.6
2023-07-18T08:30:00.532Z,953.6
2023-07-18T08:31:00.509Z,953.4
2023-07-18T08:32:00.534Z,952.5
2023-07-18T08:33:00.561Z,952.7
2023-07-18T08:34:00.521Z,953.6
2023-07-18T08:35:00.526Z,953
2023-07-18T08:36:00.574Z,953.2
2023-07-18T08:37:00.541Z,953.2
2023-07-18T08:38:00.529Z,953.6
2023-07-18T08:39:00.527Z,954.7
2023-07-18T08:40:00.570Z,953.6
2023-07-18T08:41:00.541Z,952.5
2023-07-18T08:42:00.528Z,953
2023-07-18T08:43:00.534Z,953.2
2023-07-18T08:44:02.965Z,953.6
2023-07-18T08:45:00.564Z,953
2023-07-18T08:46:00.554Z,952.3
2023-07-18T08:47:00.535Z,952.7
2023-07-18T08:48:00.552Z,953.6
2023-07-18T08:49:00.546Z,953.2
2023-07-18T08:50:00.589Z,953.8
2023-07-18T08:51:00.551Z,953.6
2023-07-18T08:52:00.554Z,953.2
2023-07-18T08:53:00.594Z,953
2023-07-18T08:54:00.549Z,952.5
2023-07-18T08:55:00.573Z,953.2
2023-07-18T08:56:00.582Z,952.7
2023-07-18T08:57:00.552Z,951.9
2023-07-18T08:58:00.559Z,951.4
2023-07-18T08:59:00.563Z,951.4
2023-07-18T09:00:00.609Z,951.4
2023-07-18T09:01:00.549Z,951.4
2023-07-18T09:02:00.597Z,953.4
2023-07-18T09:03:00.625Z,951.9
2023-07-18T09:04:00.638Z,952.3
2023-07-18T09:05:00.566Z,952.3
2023-07-18T09:06:00.552Z,951.7
2023-07-18T09:07:00.565Z,951.2
2023-07-18T09:08:00.566Z,951.9
2023-07-18T09:09:00.590Z,951.4
2023-07-18T09:10:00.605Z,951.9
2023-07-18T09:11:00.566Z,950.4
2023-07-18T09:12:04.249Z,950.4
2023-07-18T09:13:00.564Z,951.4
2023-07-18T09:14:00.567Z,951.7
2023-07-18T09:15:00.611Z,951.7
2023-07-18T09:16:00.564Z,952.1
2023-07-18T09:17:00.689Z,951.9
2023-07-18T09:18:00.723Z,951.4
2023-07-18T09:19:00.592Z,950.6
2023-07-18T09:20:00.606Z,951.4
2023-07-18T09:21:00.577Z,951.9
2023-07-18T09:22:00.602Z,951.2
2023-07-18T09:23:00.689Z,951.7
2023-07-18T09:24:00.573Z,950.4
2023-07-18T09:25:00.677Z,950.6
2023-07-18T09:26:00.596Z,950.4
2023-07-18T09:27:00.589Z,951
2023-07-18T09:28:00.584Z,951.2
2023-07-18T09:29:00.600Z,951.4
2023-07-18T09:30:00.635Z,949.9
2023-07-18T09:31:00.633Z,950.8
2023-07-18T09:32:00.650Z,951
2023-07-18T09:33:00.619Z,951
2023-07-18T09:34:00.580Z,949.9
2023-07-18T09:35:00.671Z,950.1
2023-07-18T09:36:00.592Z,949.7
2023-07-18T09:37:00.605Z,949.7
2023-07-18T09:38:00.587Z,949.7
2023-07-18T09:39:00.614Z,951
2023-07-18T09:40:00.627Z,951
2023-07-18T09:41:00.648Z,951.2
2023-07-18T09:42:02.870Z,951
2023-07-18T09:43:00.639Z,951.4
2023-07-18T09:44:26.998Z,949.7
2023-07-18T09:45:04.437Z,950.1
2023-07-18T09:46:00.619Z,951
2023-07-18T09:47:00.605Z,950.1
2023-07-18T09:48:00.660Z,949.7
2023-07-18T09:50:00.665Z,949
2023-07-18T09:51:00.603Z,948.4
2023-07-18T09:52:00.639Z,948.6
2023-07-18T09:53:00.616Z,948.8
2023-07-18T09:54:00.606Z,949.5
2023-07-18T09:55:00.617Z,949.7
2023-07-18T09:56:00.612Z,949.3
2023-07-18T09:57:00.627Z,949.3
2023-07-18T09:58:00.627Z,949.5
2023-07-18T09:59:00.636Z,949.3
2023-07-18T10:00:00.650Z,949.5
2023-07-18T10:01:00.674Z,949.3
2023-07-18T10:02:00.621Z,949.5
2023-07-18T10:03:00.672Z,950.1
2023-07-18T10:04:00.679Z,950.6
2023-07-18T10:05:00.628Z,951.4
2023-07-18T10:06:00.667Z,952.7
2023-07-18T10:07:00.643Z,953.2
2023-07-18T10:08:00.627Z,952.7
2023-07-18T10:09:00.651Z,952.7
2023-07-18T10:10:00.654Z,951.7
2023-07-18T10:11:00.658Z,951
2023-07-18T10:12:00.645Z,951
2023-07-18T10:13:00.654Z,951.2
2023-07-18T10:14:00.627Z,951.9
2023-07-18T10:15:00.633Z,953
2023-07-18T10:16:00.682Z,953
2023-07-18T10:17:00.698Z,953.6
2023-07-18T10:18:00.655Z,953.8
2023-07-18T10:19:00.648Z,954
2023-07-18T10:20:00.694Z,954
2023-07-18T10:21:00.661Z,954
2023-07-18T10:22:00.640Z,954.7
2023-07-18T10:23:00.713Z,955.4
2023-07-18T10:24:00.637Z,955.8
2023-07-18T10:25:00.641Z,955.8
2023-07-18T10:26:00.645Z,956.2
2023-07-18T10:27:00.648Z,956.7
2023-07-18T10:28:00.666Z,956.9
2023-07-18T10:29:00.685Z,957.3
2023-07-18T10:30:00.690Z,957.5
2023-07-18T10:31:00.709Z,958
2023-07-18T10:32:00.670Z,957.5
2023-07-18T10:33:00.699Z,957.7
2023-07-18T10:34:00.654Z,956.7
2023-07-18T10:35:00.704Z,956.9
2023-07-18T10:36:00.681Z,957.1
2023-07-18T10:37:00.762Z,956.7
2023-07-18T10:38:00.665Z,956.2
2023-07-18T10:39:00.659Z,955.8
2023-07-18T10:40:00.672Z,954.5
2023-07-18T10:41:00.661Z,952.1
2023-07-18T10:42:00.673Z,952.3
2023-07-18T10:43:00.662Z,951.9
2023-07-18T10:44:00.677Z,951.4
2023-07-18T10:45:00.701Z,952.1
2023-07-18T10:46:00.704Z,953.2
2023-07-18T10:47:00.682Z,952.3
2023-07-18T10:48:00.799Z,951.9
2023-07-18T10:49:00.676Z,951.7
2023-07-18T10:50:00.677Z,951.9
2023-07-18T10:51:00.674Z,951.9
2023-07-18T10:52:00.682Z,952.3
2023-07-18T10:53:00.673Z,951.4
2023-07-18T10:54:00.695Z,950.6
2023-07-18T10:55:00.693Z,950.6
2023-07-18T10:56:00.675Z,952.1
2023-07-18T10:57:00.770Z,952.3
2023-07-18T10:58:00.700Z,951.4
2023-07-18T10:59:00.699Z,952.3
2023-07-18T11:00:00.712Z,952.3
2023-07-18T11:01:00.731Z,952.3
2023-07-18T11:02:00.673Z,952.3
2023-07-18T11:03:00.701Z,952.3
2023-07-18T11:04:00.707Z,952.7
2023-07-18T11:05:00.739Z,952.7
2023-07-18T11:06:00.705Z,953.2
2023-07-18T11:07:00.706Z,953.6
2023-07-18T11:08:00.700Z,954
2023-07-18T11:09:00.737Z,954.5
2023-07-18T11:10:00.736Z,954.7
2023-07-18T11:11:00.685Z,955.1
2023-07-18T11:12:00.689Z,955.1
2023-07-18T11:13:00.684Z,955.1
2023-07-18T11:14:00.696Z,955.4
2023-07-18T11:15:01.070Z,955.4
2023-07-18T11:16:00.703Z,955.8
2023-07-18T11:17:00.745Z,955.6
2023-07-18T11:18:00.744Z,956.2
2023-07-18T11:19:00.702Z,956.7
2023-07-18T11:20:00.718Z,957.1
2023-07-18T11:21:02.801Z,956.7
2023-07-18T11:22:00.734Z,956.7
2023-07-18T11:23:00.746Z,956.7
2023-07-18T11:24:00.700Z,957.3
2023-07-18T11:25:00.707Z,956.9
2023-07-18T11:26:00.716Z,957.5
2023-07-18T11:27:00.697Z,958
2023-07-18T11:28:00.710Z,958.2
2023-07-18T11:29:00.712Z,958.2
2023-07-18T11:30:00.710Z,958.2
2023-07-18T11:31:00.726Z,958
2023-07-18T11:32:00.746Z,957.7
2023-07-18T11:33:00.745Z,957.7
2023-07-18T11:34:00.715Z,957.5
2023-07-18T11:35:00.760Z,957.7
2023-07-18T11:36:00.712Z,958
2023-07-18T11:37:00.714Z,958.4
2023-07-18T11:38:00.713Z,958.8
2023-07-18T11:39:00.754Z,959.5
2023-07-18T11:40:00.745Z,959.7
2023-07-18T11:41:00.770Z,960.1
2023-07-18T11:42:00.726Z,959.7
2023-07-18T11:43:00.720Z,959.7
2023-07-18T11:44:00.721Z,960.6
2023-07-18T11:45:01.292Z,961.2
2023-07-18T11:46:00.730Z,961.4
2023-07-18T11:47:00.733Z,961.7
2023-07-18T11:48:00.933Z,961.9
2023-07-18T11:49:00.960Z,961.7
2023-07-18T11:50:00.751Z,962.3
2023-07-18T11:51:00.728Z,962.5
2023-07-18T11:52:00.726Z,962.3
2023-07-18T11:53:00.734Z,962.7
2023-07-18T11:54:00.755Z,963.2
2023-07-18T11:55:00.729Z,963.2
2023-07-18T11:56:00.742Z,964
2023-07-18T11:57:00.757Z,964
2023-07-18T11:58:00.738Z,964
2023-07-18T11:59:00.746Z,964.3
2023-07-18T12:00:00.774Z,964.5
2023-07-18T12:01:00.806Z,964.9
2023-07-18T12:02:00.794Z,965.4
2023-07-18T12:03:00.866Z,965.6
2023-07-18T12:04:01.013Z,965.1
2023-07-18T12:05:00.777Z,965.4
2023-07-18T12:06:00.787Z,965.1
2023-07-18T12:07:00.758Z,964.7
2023-07-18T12:08:00.779Z,964.5
2023-07-18T12:09:00.773Z,964.3
2023-07-18T12:10:00.766Z,964.5
2023-07-18T12:11:09.444Z,964.9
2023-07-18T12:12:00.788Z,964
2023-07-18T12:13:00.755Z,964
2023-07-18T12:14:00.765Z,963.6
2023-07-18T12:15:00.762Z,962.1
2023-07-18T12:16:00.767Z,962.1
2023-07-18T12:17:00.872Z,962.1
2023-07-18T12:18:00.808Z,961.9
2023-07-18T12:19:00.755Z,961.9
2023-07-18T12:20:00.773Z,962.3
2023-07-18T12:21:00.812Z,963.2
2023-07-18T12:22:00.758Z,963.4
2023-07-18T12:23:00.838Z,963.8
2023-07-18T12:24:00.785Z,963.2
2023-07-18T12:25:00.762Z,963.2
2023-07-18T12:26:00.763Z,963.8
2023-07-18T12:27:00.769Z,963
2023-07-18T12:28:00.774Z,963
2023-07-18T12:29:00.775Z,963.6
2023-07-18T12:30:00.783Z,964
2023-07-18T12:31:00.884Z,964
2023-07-18T12:32:00.861Z,963.6
2023-07-18T12:33:00.794Z,963.6
2023-07-18T12:34:00.776Z,964
2023-07-18T12:35:00.775Z,964
2023-07-18T12:36:00.780Z,964
2023-07-18T12:37:00.785Z,964
2023-07-18T12:38:00.800Z,964
2023-07-18T12:39:00.817Z,964.7
2023-07-18T12:40:00.837Z,964.7
2023-07-18T12:41:00.800Z,964.9
2023-07-18T12:42:00.783Z,964.7
2023-07-18T12:43:00.791Z,964.9
2023-07-18T12:44:00.801Z,965.8
2023-07-18T12:45:00.790Z,965.4
2023-07-18T12:46:00.794Z,965.8
2023-07-18T12:47:00.821Z,966.4
2023-07-18T12:48:00.826Z,966.4
2023-07-18T12:50:00.822Z,968
2023-07-18T12:51:00.797Z,968
2023-07-18T12:52:00.791Z,967.3
2023-07-18T12:53:00.844Z,967.5
2023-07-18T12:54:00.841Z,967.7
2023-07-18T12:55:00.795Z,968.4
2023-07-18T12:56:00.813Z,968.4
2023-07-18T12:57:00.804Z,968.4
2023-07-18T12:58:00.803Z,968.4
2023-07-18T12:59:00.804Z,968.8
2023-07-18T13:00:01.150Z,969
2023-07-18T13:01:00.816Z,969.7
2023-07-18T13:02:00.944Z,968.8